Time;durP1;ratioP1;P1;durP2;ratioP2;P2;SDS_P1;SDS_P2;PMS_P1;PMS_P2;Temp;Humidity;BMP_temperature;BMP_pressure;BME280_temperature;BME280_humidity;BME280_pressure;Samples;Min_cycle;Max_cycle;Signal;HPM_P1;HPM_P2
2022/05/29 00:00:21;;;;;;;0.90;0.52;;;17.30;99.90;;;;;;6210367;23;20000;-77
2022/05/29 00:02:48;;;;;;;1.88;0.35;;;17.30;99.90;;;;;;6210405;23;19997;-78
2022/05/29 00:05:14;;;;;;;1.00;0.40;;;17.30;99.90;;;;;;6209855;23;19997;-77
2022/05/29 00:07:40;;;;;;;0.30;0.30;;;17.30;99.90;;;;;;6210266;23;20005;-78
2022/05/29 00:10:09;;;;;;;2.17;0.50;;;17.20;99.90;;;;;;6209384;23;20004;-78
2022/05/29 00:12:39;;;;;;;0.85;0.47;;;17.10;99.90;;;;;;6211820;23;19997;-77
2022/05/29 00:15:09;;;;;;;0.40;0.40;;;17.00;99.90;;;;;;6208507;23;20008;-78
2022/05/29 00:17:34;;;;;;;0.82;0.60;;;17.00;99.90;;;;;;6210225;23;20004;-78
2022/05/29 00:20:00;;;;;;;1.30;0.50;;;17.00;99.90;;;;;;6209134;23;20000;-77
2022/05/29 00:22:29;;;;;;;4.25;0.50;;;16.90;99.90;;;;;;6210427;23;20340;-78
2022/05/29 00:24:55;;;;;;;0.30;0.30;;;16.90;99.90;;;;;;6209303;23;20079;-78
2022/05/29 00:27:21;;;;;;;0.82;0.22;;;17.00;99.90;;;;;;6211761;23;20024;-77
2022/05/29 00:29:46;;;;;;;0.35;0.30;;;17.00;99.90;;;;;;6211387;23;20011;-78
2022/05/29 00:32:13;;;;;;;0.20;0.20;;;16.90;99.90;;;;;;6212928;23;20429;-78
2022/05/29 00:34:42;;;;;;;0.50;0.50;;;17.00;99.90;;;;;;6210182;23;20340;-78
2022/05/29 00:37:10;;;;;;;0.68;0.40;;;17.00;99.90;;;;;;6212026;23;20039;-77
2022/05/29 00:39:36;;;;;;;0.40;0.40;;;17.00;99.90;;;;;;6212235;23;20050;-77
2022/05/29 00:42:06;;;;;;;0.50;0.28;;;17.00;99.90;;;;;;6213415;23;20596;-77
2022/05/29 00:44:33;;;;;;;0.30;0.30;;;17.00;99.90;;;;;;6209574;23;20001;-77
2022/05/29 00:47:09;;;;;;;0.50;0.30;;;17.10;99.90;;;;;;6210924;23;20036;-77
2022/05/29 00:49:36;;;;;;;0.32;0.32;;;17.10;99.90;;;;;;6210189;23;20001;-78
2022/05/29 00:52:06;;;;;;;1.38;0.40;;;17.00;99.90;;;;;;6208894;23;20004;-77
2022/05/29 00:54:45;;;;;;;0.70;0.47;;;17.10;99.90;;;;;;6210086;23;20004;-77
2022/05/29 00:57:15;;;;;;;0.40;0.40;;;17.00;99.90;;;;;;6210069;23;20000;-77
2022/05/29 00:59:42;;;;;;;1.85;0.50;;;17.00;99.90;;;;;;6211107;23;19996;-77
2022/05/29 01:02:08;;;;;;;0.30;0.30;;;16.90;99.90;;;;;;6211376;23;20070;-77
2022/05/29 01:04:35;;;;;;;0.50;0.40;;;16.90;99.90;;;;;;6209168;23;20080;-77
2022/05/29 01:07:06;;;;;;;0.40;0.40;;;16.90;99.90;;;;;;6211279;23;20027;-77
2022/05/29 01:09:33;;;;;;;0.63;0.50;;;17.00;99.90;;;;;;6211956;23;20008;-77
2022/05/29 01:12:36;;;;;;;0.43;0.43;;;17.00;99.90;;;;;;6210775;23;20004;-77
2022/05/29 01:15:26;;;;;;;0.52;0.52;;;17.00;99.90;;;;;;6212282;23;20030;-77
2022/05/29 01:17:59;;;;;;;1.52;0.60;;;17.00;99.90;;;;;;6210043;23;19996;-77
2022/05/29 01:20:27;;;;;;;0.80;0.80;;;16.90;99.90;;;;;;6212599;23;20436;-77
2022/05/29 01:23:05;;;;;;;1.58;0.93;;;16.70;99.90;;;;;;6210023;23;20008;-77
2022/05/29 01:25:48;;;;;;;0.75;0.75;;;16.70;99.90;;;;;;6213190;23;20070;-77
2022/05/29 01:28:47;;;;;;;0.57;0.57;;;16.60;99.90;;;;;;6209802;23;20008;-77
2022/05/29 01:31:46;;;;;;;0.40;0.40;;;16.50;99.90;;;;;;6199486;23;20016;-77
2022/05/29 01:34:12;;;;;;;0.77;0.50;;;16.40;99.90;;;;;;6211517;23;20005;-77
2022/05/29 01:36:59;;;;;;;0.65;0.40;;;16.40;99.90;;;;;;6211385;23;20404;-78
2022/05/29 01:39:26;;;;;;;0.40;0.30;;;16.40;99.90;;;;;;6210734;23;20001;-78
2022/05/29 01:41:58;;;;;;;1.20;0.40;;;16.40;99.90;;;;;;6210899;23;19997;-77
2022/05/29 01:44:38;;;;;;;0.20;0.20;;;16.40;99.90;;;;;;6211448;23;20469;-78
2022/05/29 01:47:22;;;;;;;0.45;0.30;;;16.50;99.90;;;;;;6210145;23;20082;-77
2022/05/29 01:49:58;;;;;;;0.30;0.30;;;16.60;99.90;;;;;;6211914;23;20001;-77
2022/05/29 01:52:42;;;;;;;0.15;0.15;;;16.60;99.90;;;;;;6208484;23;20420;-77
2022/05/29 01:55:11;;;;;;;0.22;0.22;;;16.70;99.90;;;;;;6212269;23;20009;-77
2022/05/29 01:57:42;;;;;;;0.13;0.13;;;16.70;99.90;;;;;;6209145;23;20313;-77
2022/05/29 02:00:11;;;;;;;0.30;0.30;;;16.70;99.90;;;;;;6212860;23;20320;-78
2022/05/29 02:02:51;;;;;;;0.30;0.30;;;16.70;99.90;;;;;;6208716;23;20051;-77
2022/05/29 02:05:40;;;;;;;0.30;0.30;;;16.80;99.90;;;;;;6212647;23;20455;-77
2022/05/29 02:08:18;;;;;;;0.30;0.30;;;16.80;99.90;;;;;;6211274;23;20005;-77
2022/05/29 02:10:50;;;;;;;0.32;0.30;;;16.90;99.90;;;;;;6210621;23;20404;-77
2022/05/29 02:13:28;;;;;;;0.45;0.25;;;16.90;99.90;;;;;;6210921;23;20055;-77
2022/05/29 02:16:18;;;;;;;1.08;0.60;;;16.90;99.90;;;;;;6211656;23;20091;-78
2022/05/29 02:19:07;;;;;;;2.53;0.30;;;16.90;99.90;;;;;;6211138;23;20001;-77
2022/05/29 02:21:44;;;;;;;0.30;0.30;;;16.80;99.90;;;;;;6209074;23;20001;-77
2022/05/29 02:24:14;;;;;;;0.25;0.22;;;16.80;99.90;;;;;;6211838;23;20051;-78
2022/05/29 02:27:06;;;;;;;0.10;0.10;;;16.80;99.90;;;;;;6209755;23;20161;-77
2022/05/29 02:29:32;;;;;;;0.77;0.20;;;16.80;99.90;;;;;;6210510;23;20011;-77
2022/05/29 02:35:06;;;;;;;0.30;0.30;;;16.70;99.90;;;;;;6201249;23;20428;-73
2022/05/29 02:37:44;;;;;;;0.30;0.30;;;16.70;99.90;;;;;;6204480;23;20435;-73
2022/05/29 02:40:20;;;;;;;0.30;0.30;;;16.70;99.90;;;;;;6179579;23;20205;-73
2022/05/29 02:43:06;;;;;;;0.75;0.25;;;16.80;99.90;;;;;;6207570;23;20146;-73
2022/05/29 02:45:38;;;;;;;0.40;0.40;;;16.70;99.90;;;;;;6207440;23;20195;-73
2022/05/29 02:51:41;;;;;;;0.32;0.28;;;16.70;99.90;;;;;;6199610;23;20264;-77
2022/05/29 02:54:12;;;;;;;0.50;0.30;;;16.70;99.90;;;;;;6211708;23;20027;-76
2022/05/29 02:56:38;;;;;;;0.60;0.20;;;16.60;99.90;;;;;;6209790;23;20011;-77
2022/05/29 02:59:03;;;;;;;1.65;0.30;;;16.60;99.90;;;;;;6211743;23;20001;-76
2022/05/29 03:01:43;;;;;;;0.30;0.30;;;16.60;99.90;;;;;;6208186;23;20000;-77
2022/05/29 03:04:21;;;;;;;0.32;0.28;;;16.60;99.90;;;;;;6211623;23;20531;-77
2022/05/29 03:07:16;;;;;;;0.20;0.20;;;16.50;99.90;;;;;;6209604;23;20076;-77
2022/05/29 03:10:00;;;;;;;0.28;0.28;;;16.60;99.90;;;;;;6211080;23;19997;-77
2022/05/29 03:12:44;;;;;;;0.75;0.43;;;16.60;99.90;;;;;;6210724;23;20005;-77
2022/05/29 03:15:24;;;;;;;0.63;0.40;;;16.60;99.90;;;;;;6209924;23;20043;-77
2022/05/29 03:17:59;;;;;;;1.00;0.47;;;16.70;99.90;;;;;;6209881;23;20079;-77
2022/05/29 03:20:48;;;;;;;0.50;0.38;;;16.70;99.90;;;;;;6210046;23;20024;-77
2022/05/29 03:23:29;;;;;;;0.30;0.30;;;16.70;99.90;;;;;;6211056;23;20005;-77
2022/05/29 03:26:00;;;;;;;0.30;0.30;;;16.80;99.90;;;;;;6208821;23;20005;-77
2022/05/29 03:28:40;;;;;;;0.50;0.50;;;16.70;99.90;;;;;;6209616;23;20003;-77
2022/05/29 03:31:11;;;;;;;0.50;0.50;;;16.60;99.90;;;;;;6207876;23;20005;-76
2022/05/29 03:33:41;;;;;;;0.38;0.38;;;16.60;99.90;;;;;;6211078;23;20009;-77
2022/05/29 03:36:11;;;;;;;0.30;0.30;;;16.60;99.90;;;;;;6208629;23;20377;-77
2022/05/29 03:38:36;;;;;;;0.40;0.30;;;16.60;99.90;;;;;;6208930;23;20040;-77
2022/05/29 03:41:11;;;;;;;0.50;0.40;;;16.60;99.90;;;;;;6208063;23;20344;-77
2022/05/29 03:43:37;;;;;;;0.52;0.52;;;16.60;99.90;;;;;;6214347;23;19997;-77
2022/05/29 03:46:06;;;;;;;0.20;0.20;;;16.60;99.90;;;;;;6211606;23;20012;-76
2022/05/29 03:48:32;;;;;;;0.85;0.30;;;16.60;99.90;;;;;;6211688;23;20508;-77
2022/05/29 03:51:07;;;;;;;1.92;0.20;;;16.60;99.90;;;;;;6212685;23;20439;-77
2022/05/29 03:53:33;;;;;;;1.67;0.40;;;16.60;99.90;;;;;;6214305;23;20488;-77
2022/05/29 03:55:59;;;;;;;0.40;0.40;;;16.60;99.90;;;;;;6213997;23;20009;-77
2022/05/29 03:58:25;;;;;;;1.17;0.45;;;16.60;99.90;;;;;;6212782;23;20078;-77
2022/05/29 04:00:51;;;;;;;1.25;0.57;;;16.60;99.90;;;;;;6215390;23;20008;-77
2022/05/29 04:03:17;;;;;;;0.40;0.40;;;16.70;99.90;;;;;;6216187;23;20001;-77
2022/05/29 04:05:43;;;;;;;0.40;0.40;;;16.70;99.90;;;;;;6217141;23;20434;-77
2022/05/29 04:13:42;;;;;;;1.13;0.38;;;16.60;99.90;;;;;;6216625;23;20067;-77
2022/05/29 04:16:08;;;;;;;0.27;0.27;;;16.60;99.90;;;;;;6216750;23;20107;-76
2022/05/29 04:18:34;;;;;;;0.70;0.40;;;16.60;99.90;;;;;;6216561;23;20024;-76
2022/05/29 04:20:59;;;;;;;0.50;0.50;;;16.70;99.90;;;;;;6216992;23;20004;-77
2022/05/29 04:23:25;;;;;;;0.50;0.50;;;16.60;99.90;;;;;;6217097;23;20083;-76
2022/05/29 04:25:51;;;;;;;0.52;0.52;;;16.60;99.90;;;;;;6217025;23;20035;-77
2022/05/29 04:28:18;;;;;;;0.40;0.40;;;16.60;99.90;;;;;;6216875;23;20301;-77
2022/05/29 04:30:44;;;;;;;0.47;0.47;;;16.60;99.90;;;;;;6216831;23;20000;-77
2022/05/29 04:33:10;;;;;;;0.40;0.40;;;16.60;99.90;;;;;;6216639;23;20008;-76
2022/05/29 04:35:41;;;;;;;0.73;0.40;;;16.50;99.90;;;;;;6216841;23;20015;-77
2022/05/29 04:38:08;;;;;;;0.50;0.50;;;16.50;99.90;;;;;;6216644;23;20000;-77
2022/05/29 04:40:37;;;;;;;0.40;0.40;;;16.60;99.90;;;;;;6216631;23;19993;-76
2022/05/29 04:43:02;;;;;;;1.95;0.40;;;16.60;99.90;;;;;;6216525;23;20001;-77
2022/05/29 04:45:28;;;;;;;0.85;0.52;;;16.60;99.90;;;;;;6216628;23;20457;-76
2022/05/29 04:47:54;;;;;;;3.60;1.13;;;16.60;99.90;;;;;;6216424;23;20455;-76
2022/05/29 04:50:20;;;;;;;0.82;0.43;;;16.60;99.90;;;;;;6216613;23;20000;-77
2022/05/29 04:52:46;;;;;;;0.40;0.40;;;16.50;99.90;;;;;;6216672;23;20024;-77
2022/05/29 04:55:12;;;;;;;1.75;0.47;;;16.40;99.90;;;;;;6216481;23;20547;-77
2022/05/29 04:57:38;;;;;;;0.40;0.40;;;16.40;99.90;;;;;;6216623;23;20084;-77
2022/05/29 05:00:05;;;;;;;1.17;0.68;;;16.30;99.90;;;;;;6216543;23;20366;-76
2022/05/29 05:02:31;;;;;;;0.60;0.50;;;16.40;99.90;;;;;;6216596;23;20071;-77
2022/05/29 05:04:57;;;;;;;0.70;0.70;;;16.50;99.90;;;;;;6216443;23;20000;-76
2022/05/29 05:07:22;;;;;;;1.60;0.40;;;16.50;99.90;;;;;;6216649;23;20035;-77
2022/05/29 05:09:48;;;;;;;0.50;0.50;;;16.40;99.90;;;;;;6216681;23;20258;-77
2022/05/29 05:12:14;;;;;;;0.82;0.50;;;16.30;99.90;;;;;;6216688;23;20000;-77
2022/05/29 05:14:40;;;;;;;0.47;0.47;;;16.40;99.90;;;;;;6215683;23;20005;-76
2022/05/29 05:17:09;;;;;;;0.60;0.60;;;16.40;99.90;;;;;;6216595;23;20428;-76
2022/05/29 05:19:35;;;;;;;0.50;0.45;;;16.40;99.90;;;;;;6216472;23;19996;-77
2022/05/29 05:22:02;;;;;;;2.35;0.60;;;16.40;99.90;;;;;;6214657;23;20001;-77
2022/05/29 05:24:28;;;;;;;2.38;0.55;;;16.30;99.90;;;;;;6216470;23;20042;-77
2022/05/29 05:26:56;;;;;;;0.50;0.50;;;16.30;99.90;;;;;;6216381;23;20083;-77
2022/05/29 05:29:22;;;;;;;1.35;0.40;;;16.30;99.90;;;;;;6216164;23;20004;-76
2022/05/29 05:31:47;;;;;;;0.57;0.57;;;16.30;99.90;;;;;;6216460;23;20000;-76
2022/05/29 05:34:13;;;;;;;0.45;0.45;;;16.30;99.90;;;;;;6216135;23;20019;-77
2022/05/29 05:36:39;;;;;;;3.03;0.55;;;16.30;99.90;;;;;;6216167;23;20012;-77
2022/05/29 05:39:05;;;;;;;0.52;0.40;;;16.30;99.90;;;;;;6216341;23;20067;-77
2022/05/29 05:41:30;;;;;;;0.30;0.30;;;16.30;99.90;;;;;;6214351;23;20091;-77
2022/05/29 05:43:56;;;;;;;0.50;0.50;;;16.30;99.90;;;;;;6215896;23;20000;-76
2022/05/29 05:46:22;;;;;;;1.05;0.55;;;16.30;99.90;;;;;;6216040;23;20012;-76
2022/05/29 05:48:48;;;;;;;0.40;0.40;;;16.30;99.90;;;;;;6215155;23;20610;-76
2022/05/29 05:51:16;;;;;;;0.40;0.40;;;16.40;99.90;;;;;;6216035;23;20024;-76
2022/05/29 05:53:45;;;;;;;0.50;0.50;;;16.50;99.90;;;;;;6215569;23;20039;-77
2022/05/29 05:56:14;;;;;;;0.60;0.60;;;16.50;99.90;;;;;;6215539;23;20007;-77
2022/05/29 05:58:42;;;;;;;0.50;0.50;;;16.40;99.90;;;;;;6215710;23;20605;-76
2022/05/29 06:01:16;;;;;;;0.50;0.50;;;16.40;99.90;;;;;;6215935;23;19996;-77
2022/05/29 06:03:42;;;;;;;1.42;0.50;;;16.40;99.90;;;;;;6215947;23;20308;-76
2022/05/29 06:06:09;;;;;;;0.60;0.60;;;16.40;99.90;;;;;;6214259;23;20379;-77
2022/05/29 06:08:35;;;;;;;4.57;0.50;;;16.50;99.90;;;;;;6216029;23;20004;-77
2022/05/29 06:11:00;;;;;;;3.10;0.50;;;16.60;99.90;;;;;;6214417;23;20051;-76
2022/05/29 06:13:27;;;;;;;1.55;0.50;;;16.60;99.90;;;;;;6216003;23;20013;-76
2022/05/29 06:15:52;;;;;;;0.43;0.43;;;16.60;99.90;;;;;;6215821;23;20084;-76
2022/05/29 06:18:18;;;;;;;1.85;0.70;;;16.70;99.90;;;;;;6215813;23;20040;-76
2022/05/29 06:20:45;;;;;;;1.17;0.60;;;16.70;99.90;;;;;;6215791;23;20001;-76
2022/05/29 06:23:11;;;;;;;0.63;0.63;;;16.70;99.90;;;;;;6216190;23;20004;-76
2022/05/29 06:25:41;;;;;;;0.47;0.47;;;16.60;99.90;;;;;;6215357;23;20012;-77
2022/05/29 06:28:08;;;;;;;0.70;0.70;;;16.60;99.90;;;;;;6215633;23;20482;-76
2022/05/29 06:30:35;;;;;;;1.77;1.20;;;16.60;99.90;;;;;;6215735;23;20011;-76
2022/05/29 06:33:01;;;;;;;2.05;1.83;;;16.70;99.90;;;;;;6215400;23;20000;-77
2022/05/29 06:35:28;;;;;;;0.73;0.73;;;16.80;99.90;;;;;;6215490;23;20091;-76
2022/05/29 06:37:53;;;;;;;0.57;0.55;;;16.70;99.90;;;;;;6213801;23;20040;-76
2022/05/29 06:40:19;;;;;;;2.17;0.65;;;16.70;99.90;;;;;;6215725;23;20005;-76
2022/05/29 06:42:45;;;;;;;0.55;0.40;;;16.70;99.90;;;;;;6215692;23;20523;-76
2022/05/29 06:45:11;;;;;;;0.60;0.60;;;16.60;99.90;;;;;;6215657;23;20005;-77
2022/05/29 06:47:39;;;;;;;0.70;0.70;;;16.70;99.90;;;;;;6215419;23;20005;-77
2022/05/29 06:50:05;;;;;;;0.60;0.60;;;16.70;99.90;;;;;;6215400;23;20011;-76
2022/05/29 06:52:31;;;;;;;0.60;0.60;;;16.80;99.90;;;;;;6214690;23;20008;-73
2022/05/29 06:54:58;;;;;;;1.58;1.10;;;16.70;99.90;;;;;;6214500;23;20000;-73
2022/05/29 06:57:36;;;;;;;0.60;0.60;;;16.70;99.90;;;;;;6214707;23;20310;-73
2022/05/29 07:08:40;;;;;;;0.85;0.85;;;16.90;99.90;;;;;;6214489;23;20016;-72
2022/05/29 07:11:19;;;;;;;0.85;0.85;;;17.00;99.90;;;;;;6214549;23;20458;-73
2022/05/29 07:13:45;;;;;;;0.65;0.60;;;17.00;99.90;;;;;;6214488;23;20005;-73
2022/05/29 07:16:11;;;;;;;1.58;0.70;;;17.00;99.90;;;;;;6214570;23;20005;-72
2022/05/29 07:18:36;;;;;;;1.90;0.70;;;17.00;99.90;;;;;;6214433;23;20027;-73
2022/05/29 07:21:04;;;;;;;0.90;0.90;;;17.10;99.90;;;;;;6214090;23;20504;-73
2022/05/29 07:23:30;;;;;;;2.45;0.70;;;17.10;99.90;;;;;;6214618;23;19997;-73
2022/05/29 07:25:57;;;;;;;0.80;0.68;;;17.00;99.90;;;;;;6212379;23;20054;-73
2022/05/29 07:28:23;;;;;;;0.50;0.50;;;17.10;99.90;;;;;;6211203;23;20087;-73
2022/05/29 07:30:51;;;;;;;1.95;0.75;;;17.00;99.90;;;;;;6212876;23;20016;-73
2022/05/29 07:33:17;;;;;;;0.70;0.70;;;17.10;99.90;;;;;;6214111;23;20004;-73
2022/05/29 07:35:44;;;;;;;1.25;0.95;;;17.10;99.90;;;;;;6212223;23;20015;-73
2022/05/29 07:38:10;;;;;;;0.57;0.57;;;17.10;99.90;;;;;;6212435;23;20081;-73
2022/05/29 07:40:36;;;;;;;5.05;4.65;;;17.20;99.90;;;;;;6215176;23;20051;-74
2022/05/29 07:43:22;;;;;;;4.80;4.50;;;17.50;99.90;;;;;;6215557;23;20380;-75
2022/05/29 07:45:52;;;;;;;2.30;0.80;;;18.00;99.90;;;;;;6214086;23;20126;-74
2022/05/29 07:48:20;;;;;;;2.85;0.93;;;18.00;99.90;;;;;;6214770;23;20027;-74
2022/05/29 07:50:46;;;;;;;4.07;0.73;;;17.90;99.90;;;;;;6213005;23;20325;-74
2022/05/29 07:53:13;;;;;;;0.70;0.70;;;17.90;99.90;;;;;;6214323;23;20000;-74
2022/05/29 07:55:39;;;;;;;0.98;0.90;;;17.90;99.90;;;;;;6213991;23;20004;-74
2022/05/29 07:58:07;;;;;;;2.83;0.60;;;17.90;99.90;;;;;;6214110;23;20001;-74
2022/05/29 08:00:33;;;;;;;1.00;0.88;;;17.90;99.90;;;;;;6212226;23;20001;-74
2022/05/29 08:02:59;;;;;;;1.60;0.77;;;17.80;99.90;;;;;;6213879;23;20028;-74
2022/05/29 08:05:25;;;;;;;0.85;0.60;;;17.90;99.90;;;;;;6214539;23;20001;-74
2022/05/29 08:07:52;;;;;;;0.93;0.90;;;17.80;99.90;;;;;;6214975;23;20019;-74
2022/05/29 08:10:25;;;;;;;1.27;0.68;;;17.90;99.90;;;;;;6216653;23;20004;-74
2022/05/29 08:12:52;;;;;;;0.60;0.60;;;17.80;99.90;;;;;;6189995;23;20059;-74
2022/05/29 08:15:18;;;;;;;1.77;0.82;;;17.80;99.90;;;;;;6214616;23;20000;-74
2022/05/29 08:17:44;;;;;;;2.70;0.80;;;17.90;99.90;;;;;;6215386;23;20004;-78
2022/05/29 08:20:12;;;;;;;2.15;1.08;;;18.00;99.90;;;;;;6216873;23;20008;-78
2022/05/29 08:22:38;;;;;;;1.02;0.90;;;18.10;99.90;;;;;;6216934;23;20008;-78
2022/05/29 08:30:43;;;;;;;2.00;0.90;;;18.20;99.90;;;;;;6216741;23;20051;-78
2022/05/29 08:33:15;;;;;;;1.08;1.00;;;18.20;99.90;;;;;;6216777;23;20552;-77
2022/05/29 08:35:44;;;;;;;1.27;0.80;;;18.30;99.90;;;;;;6190115;23;20344;-77
2022/05/29 08:38:11;;;;;;;1.30;0.70;;;18.20;99.90;;;;;;6216638;23;19997;-78
2022/05/29 08:41:04;;;;;;;0.75;0.73;;;18.30;99.90;;;;;;6216778;23;20011;-78
2022/05/29 08:43:33;;;;;;;0.85;0.80;;;18.50;99.90;;;;;;6216718;23;20000;-78
2022/05/29 08:46:12;;;;;;;1.00;0.88;;;18.60;99.90;;;;;;6216851;23;19996;-78
2022/05/29 08:48:38;;;;;;;2.13;1.00;;;18.60;99.90;;;;;;6216496;23;20299;-78
2022/05/29 08:51:22;;;;;;;1.13;0.80;;;18.70;99.90;;;;;;6216937;23;20001;-77
2022/05/29 08:54:11;;;;;;;5.20;0.90;;;18.70;99.90;;;;;;6216672;23;20004;-77
2022/05/29 08:56:49;;;;;;;0.82;0.82;;;18.70;99.90;;;;;;6215901;23;20009;-78
2022/05/29 08:59:36;;;;;;;1.35;0.73;;;18.70;99.90;;;;;;6215995;23;20004;-77
2022/05/29 09:02:11;;;;;;;1.50;1.13;;;18.60;99.90;;;;;;6189127;23;20007;-77
2022/05/29 09:04:45;;;;;;;1.88;0.80;;;18.70;99.90;;;;;;6189202;23;20036;-77
2022/05/29 09:07:17;;;;;;;0.95;0.90;;;18.70;99.90;;;;;;6216028;23;20005;-78
2022/05/29 09:09:52;;;;;;;1.73;0.85;;;18.80;99.30;;;;;;6216199;23;20490;-77
2022/05/29 09:12:44;;;;;;;2.80;0.82;;;18.80;99.90;;;;;;6215760;23;19997;-78
2022/05/29 09:15:27;;;;;;;1.48;0.93;;;18.90;99.90;;;;;;6215474;23;20000;-78
2022/05/29 09:17:53;;;;;;;;;;;18.90;99.90;;;;;;6216112;23;20436;-77
2022/05/29 09:20:22;;;;;;;4.05;1.20;;;18.80;99.90;;;;;;6189761;23;19904;-77
2022/05/29 09:22:47;;;;;;;1.02;1.02;;;18.80;99.90;;;;;;6216295;23;20020;-77
2022/05/29 09:25:33;;;;;;;3.00;1.30;;;18.80;99.90;;;;;;6215911;23;20108;-77
2022/05/29 09:28:25;;;;;;;2.40;1.00;;;18.90;99.90;;;;;;6216135;23;20000;-77
2022/05/29 09:31:04;;;;;;;5.68;1.30;;;19.00;99.80;;;;;;6216188;23;20006;-77
2022/05/29 09:33:30;;;;;;;3.67;1.38;;;19.00;99.90;;;;;;6215920;23;20013;-77
2022/05/29 09:36:02;;;;;;;1.35;1.00;;;18.90;98.40;;;;;;6215755;23;20492;-77
2022/05/29 09:38:40;;;;;;;;;;;19.00;99.70;;;;;;6216435;23;19997;-78
2022/05/29 09:41:15;;;;;;;1.23;1.00;;;18.90;99.60;;;;;;6189303;23;19900;-78
2022/05/29 09:44:10;;;;;;;1.10;0.90;;;18.80;99.90;;;;;;6215762;23;20007;-77
2022/05/29 09:46:39;;;;;;;2.38;1.00;;;18.90;99.90;;;;;;6215813;23;20071;-77
2022/05/29 09:51:56;;;;;;;0.73;0.73;;;18.90;99.90;;;;;;6216163;23;20107;-77
2022/05/29 09:54:29;;;;;;;4.20;1.20;;;18.90;99.80;;;;;;6216069;23;20032;-77
2022/05/29 09:57:20;;;;;;;1.95;0.98;;;18.90;99.90;;;;;;6216177;23;20006;-77
2022/05/29 09:59:49;;;;;;;1.60;1.10;;;18.90;99.90;;;;;;6213990;23;20001;-77
2022/05/29 10:02:26;;;;;;;0.85;0.82;;;18.80;99.90;;;;;;6214457;23;20011;-77
2022/05/29 10:04:55;;;;;;;1.30;1.13;;;18.70;99.90;;;;;;6216067;23;20007;-77
2022/05/29 10:07:44;;;;;;;1.98;1.30;;;18.60;99.90;;;;;;6215832;23;20000;-77
2022/05/29 10:10:14;;;;;;;1.20;1.10;;;18.70;99.90;;;;;;6215773;23;20028;-78
2022/05/29 10:12:46;;;;;;;1.25;1.23;;;18.70;99.90;;;;;;6213984;23;20055;-77
2022/05/29 10:15:26;;;;;;;1.15;0.70;;;18.70;99.90;;;;;;6215936;23;20005;-77
2022/05/29 10:18:01;;;;;;;1.08;1.05;;;18.80;99.90;;;;;;6215539;23;20355;-78
2022/05/29 10:20:31;;;;;;;1.73;0.88;;;18.80;99.90;;;;;;6215920;23;20004;-77
2022/05/29 10:23:01;;;;;;;4.60;1.30;;;18.90;99.90;;;;;;6215710;23;19997;-77
2022/05/29 10:25:31;;;;;;;1.50;1.40;;;19.00;99.80;;;;;;6215680;23;20058;-77
2022/05/29 10:28:02;;;;;;;1.17;1.08;;;19.00;99.40;;;;;;6215831;23;20005;-77
2022/05/29 10:30:47;;;;;;;0.93;0.93;;;19.20;99.90;;;;;;6215501;23;20079;-77
2022/05/29 10:33:21;;;;;;;0.95;0.95;;;19.20;99.10;;;;;;6213973;23;20044;-77
2022/05/29 10:35:47;;;;;;;1.92;1.40;;;19.30;99.30;;;;;;6215646;23;20009;-77
2022/05/29 10:38:19;;;;;;;3.80;1.30;;;19.40;99.90;;;;;;6213919;23;20011;-77
2022/05/29 10:40:48;;;;;;;4.28;1.00;;;19.40;99.70;;;;;;6215764;23;20323;-77
2022/05/29 10:43:32;;;;;;;2.63;1.20;;;19.40;99.10;;;;;;6215639;23;19993;-77
2022/05/29 10:46:18;;;;;;;4.05;3.10;;;19.40;99.20;;;;;;6215725;23;20009;-77
2022/05/29 10:49:09;;;;;;;2.70;2.47;;;19.40;99.90;;;;;;6215494;23;20011;-77
2022/05/29 10:52:01;;;;;;;1.20;1.10;;;19.50;99.90;;;;;;6215685;23;20009;-77
2022/05/29 10:54:54;;;;;;;1.67;1.50;;;19.60;99.90;;;;;;6213050;23;20087;-78
2022/05/29 10:57:28;;;;;;;2.60;1.50;;;19.50;99.90;;;;;;6215641;23;20079;-78
2022/05/29 11:00:27;;;;;;;3.80;2.40;;;19.40;99.90;;;;;;6215583;23;19997;-78
2022/05/29 11:03:19;;;;;;;3.13;2.42;;;19.30;99.90;;;;;;6215695;23;20001;-78
2022/05/29 11:06:29;;;;;;;2.40;2.30;;;19.20;99.90;;;;;;6215587;23;20007;-77
2022/05/29 11:09:20;;;;;;;1.95;1.70;;;19.10;99.90;;;;;;6215547;23;20008;-77
2022/05/29 11:12:03;;;;;;;1.40;1.30;;;19.10;99.90;;;;;;6215476;23;20040;-77
2022/05/29 11:14:32;;;;;;;1.90;1.80;;;19.10;99.90;;;;;;6215238;23;20000;-78
2022/05/29 11:17:29;;;;;;;1.40;1.30;;;19.10;99.90;;;;;;6215142;23;20005;-77
2022/05/29 11:20:07;;;;;;;2.17;1.20;;;19.10;99.90;;;;;;6215353;23;20028;-77
2022/05/29 11:23:17;;;;;;;1.30;1.20;;;19.00;99.90;;;;;;6215372;23;19997;-77
2022/05/29 11:25:51;;;;;;;1.40;1.30;;;19.10;99.90;;;;;;6215234;23;20572;-77
2022/05/29 11:28:17;;;;;;;2.72;1.27;;;19.10;99.90;;;;;;6215229;23;20008;-77
2022/05/29 11:30:43;;;;;;;3.53;1.75;;;19.20;99.90;;;;;;6215366;23;20005;-77
2022/05/29 11:33:28;;;;;;;1.58;1.30;;;19.10;99.90;;;;;;6214896;23;20448;-77
2022/05/29 11:36:03;;;;;;;1.60;1.50;;;19.00;99.90;;;;;;6215428;23;20035;-77
2022/05/29 11:38:29;;;;;;;1.75;1.45;;;19.00;99.90;;;;;;6213913;23;20456;-77
2022/05/29 11:41:10;;;;;;;1.27;1.17;;;19.00;99.90;;;;;;6215517;23;20004;-78
2022/05/29 11:43:49;;;;;;;1.10;1.05;;;18.80;99.90;;;;;;6215468;23;20055;-77
2022/05/29 11:52:43;;;;;;;2.55;1.38;;;18.60;99.90;;;;;;6215119;23;20159;-77
2022/05/29 11:55:25;;;;;;;3.40;1.50;;;18.50;99.90;;;;;;6215116;23;20005;-77
2022/05/29 11:58:00;;;;;;;0.85;0.85;;;18.50;99.90;;;;;;6213264;23;20000;-77
2022/05/29 12:00:47;;;;;;;5.35;1.38;;;18.50;99.90;;;;;;6215106;23;20436;-77
2022/05/29 12:03:26;;;;;;;1.25;1.15;;;18.60;99.90;;;;;;6214978;23;20004;-77
2022/05/29 12:06:02;;;;;;;1.40;1.30;;;18.70;99.90;;;;;;6214971;23;20397;-77
2022/05/29 12:08:40;;;;;;;1.95;1.20;;;18.70;99.90;;;;;;6214790;23;20058;-77
2022/05/29 12:11:18;;;;;;;2.33;1.55;;;18.70;99.90;;;;;;6214983;23;20028;-77
2022/05/29 12:13:55;;;;;;;1.42;1.30;;;18.70;99.90;;;;;;6215239;23;20005;-77
2022/05/29 12:16:28;;;;;;;1.75;0.90;;;18.80;99.90;;;;;;6214964;23;20008;-78
2022/05/29 12:18:56;;;;;;;2.83;1.08;;;18.80;99.90;;;;;;6214649;23;19997;-77
2022/05/29 12:21:35;;;;;;;1.33;1.33;;;18.80;99.90;;;;;;6214688;23;20298;-77
2022/05/29 12:24:07;;;;;;;1.58;1.48;;;18.80;99.90;;;;;;6213588;23;20494;-77
2022/05/29 12:26:50;;;;;;;1.48;1.25;;;18.80;99.90;;;;;;6216376;23;20035;-77
2022/05/29 12:29:22;;;;;;;3.30;1.50;;;18.70;99.90;;;;;;6216659;23;20034;-78
2022/05/29 12:31:54;;;;;;;2.03;1.25;;;18.70;99.90;;;;;;6216602;23;20050;-77
2022/05/29 12:34:29;;;;;;;1.92;1.30;;;18.80;99.90;;;;;;6216394;23;20447;-77
2022/05/29 12:37:13;;;;;;;1.73;1.55;;;18.80;99.90;;;;;;6216794;23;20111;-77
2022/05/29 12:39:47;;;;;;;1.02;1.02;;;18.80;99.90;;;;;;6215270;23;20001;-77
2022/05/29 12:42:42;;;;;;;2.25;1.23;;;18.90;99.90;;;;;;6216670;23;20008;-77
2022/05/29 12:45:43;;;;;;;1.45;1.35;;;18.90;99.90;;;;;;6136182;23;20109;-77
2022/05/29 12:48:29;;;;;;;1.05;1.05;;;18.90;99.90;;;;;;6165944;23;20008;-77
2022/05/29 12:50:58;;;;;;;1.10;1.00;;;18.80;99.90;;;;;;6216819;23;20004;-77
2022/05/29 12:53:45;;;;;;;1.38;1.27;;;18.80;99.90;;;;;;6216712;23;20012;-77
2022/05/29 12:56:32;;;;;;;2.90;1.65;;;18.80;99.90;;;;;;6216618;23;20005;-77
2022/05/29 12:59:06;;;;;;;1.95;1.35;;;18.80;99.90;;;;;;6216594;23;20007;-77
2022/05/29 13:01:50;;;;;;;2.22;1.65;;;18.80;99.90;;;;;;6216720;23;20001;-78
2022/05/29 13:04:51;;;;;;;4.35;1.40;;;18.80;99.90;;;;;;6216540;23;19996;-78
2022/05/29 13:07:33;;;;;;;2.20;1.90;;;18.70;99.90;;;;;;6211941;23;20046;-77
2022/05/29 13:10:09;;;;;;;6.57;1.67;;;18.70;99.90;;;;;;6213731;23;20075;-77
2022/05/29 13:13:04;;;;;;;2.40;1.77;;;18.70;99.90;;;;;;6209567;23;20147;-77
2022/05/29 13:15:35;;;;;;;3.80;2.38;;;18.60;99.90;;;;;;6200358;23;20013;-77
2022/05/29 13:18:15;;;;;;;1.58;1.40;;;18.70;99.90;;;;;;6209640;23;20332;-77
2022/05/29 13:21:05;;;;;;;6.50;1.98;;;18.70;99.90;;;;;;6209075;23;20543;-77
2022/05/29 13:23:33;;;;;;;2.38;1.20;;;18.70;99.90;;;;;;6208818;23;20001;-77
2022/05/29 13:25:59;;;;;;;1.67;1.58;;;18.60;99.90;;;;;;6212431;23;20008;-77
2022/05/29 13:28:43;;;;;;;1.60;1.50;;;18.60;99.90;;;;;;6210303;23;20709;-77
2022/05/29 13:31:14;;;;;;;1.67;1.50;;;18.70;99.90;;;;;;6212349;23;20019;-77
2022/05/29 13:33:43;;;;;;;1.73;1.38;;;18.60;99.90;;;;;;6209366;23;20008;-77
2022/05/29 13:36:11;;;;;;;2.35;1.77;;;18.60;99.90;;;;;;6212790;23;20051;-78
2022/05/29 13:38:45;;;;;;;1.70;1.60;;;18.60;99.90;;;;;;6210344;23;20770;-77
2022/05/29 13:41:50;;;;;;;3.28;1.92;;;18.60;99.90;;;;;;6211509;23;20001;-77
2022/05/29 13:44:41;;;;;;;1.52;1.42;;;18.60;99.90;;;;;;6211007;23;20336;-77
2022/05/29 13:47:20;;;;;;;1.92;1.83;;;18.60;99.90;;;;;;6209718;23;20401;-78
2022/05/29 13:49:50;;;;;;;2.00;1.77;;;18.60;99.90;;;;;;6208442;23;20008;-77
2022/05/29 13:52:39;;;;;;;3.35;1.50;;;18.70;99.90;;;;;;6207874;23;20063;-77
2022/05/29 13:55:16;;;;;;;1.75;1.60;;;18.70;99.90;;;;;;6210330;23;20008;-78